Relevés horaires Bruxelles-National (Belgique)


Relevés horaires à Bruxelles-National - Mercredi 08 Avr. 2020
Heure UTC1 Température [°C] Vent [km/h] Hum. [%] Pres.4 [hPa] Visi. [Km] Nébu. [octa] Préc.5 [mm] Cond.
2m. Res. Ros. Dir.2 Vit. Moy. Raf.3
23:00 14.8 14.8 4.3 ONO 1.9 1.9 3.7 49 1023.5(0.4/3h) 20 0/8 -- --
22:00 15.9 15.9 4.1 NNO 1.9 1.9 3.7 45 1023.5(0.6/3h) 20 0/8 -- --
21:00 16.1 16.1 5.0 NNO 0.0 3.7 3.7 48 1023.3(0.6/3h) 20 1/8 -- --
20:00 17.9 17.9 3.1 N 1.9 1.9 3.7 37 1023.1(0.4/3h) 20 0/8 -- --
19:00 19.1 19.1 3.7 N 1.9 3.7 3.7 36 1022.8(0.1/3h) 20 1/8 -- --
18:00 20.2 20.2 7.5 NE 3.7 5.6 9.3 44 1022.6(-0.5/3h) 20 1/8 0/12h
--
17:00 21.6 21.6 9.0 N 3.7 3.7 5.6 44 1022.6(-0.8/3h) 20 1/8 -- --
16:00 22.9 22.9 5.9 N 3.7 5.6 7.4 33 1022.6(-1.2/3h) 20 2/8 -- --
15:00 23.2 23.2 4.6 E 1.9 5.6 9.3 30 1023(-1.3/3h) 20 3/8 -- --
14:00 23.4 23.4 6.2 NNO 1.9 3.7 7.4 33 1023.4(-1.3/3h) 20 3/8 -- --
13:00 22.2 22.2 5.3 NNE 3.7 5.6 9.3 33 1023.9(-1.3/3h) 20 3/8 -- --
12:00 22.4 22.4 7.6 N 5.6 5.6 7.4 39 1024.3(-0.9/3h) 20 3/8 0/6h
--
11:00 21.6 21.6 7.2 N 1.9 3.7 5.6 39 1024.7(-0.5/3h) 20 3/8 -- --
10:00 18.8 18.8 9.0 NNE 3.7 3.7 5.6 53 1025.2(0.0/3h) 20 2/8 -- --
09:00 17.6 17.6 9.4 N 1.9 1.9 3.7 59 1025.4(0.2/3h) 15 2/8 -- --
08:00 12.8 12.8 9.3 N 1.9 1.9 1.9 79 1025.5(0.3/3h) 15 4/8 -- --
07:00 10.3 10.3 8.6 NE 1.9 1.9 1.9 89 1025.4(0.0/3h) 15 3/8 -- --
06:00 7.8 7.8 6.2 NE 1.9 3.7 3.7 90 1025.4(-0.6/3h) 15 2/8 0/12h
--
05:00 8.6 8.6 6.8 NNO 0.0 1.9 3.7 88 1025.3(-1.0/3h) 35 3/8 -- --
04:00 9.5 9.5 7.1 ESE 1.9 3.7 3.7 85 1025.5(-1.2/3h) 35 4/8 -- --
03:00 9.1 9.1 6.6 ESE 3.7 3.7 3.7 84 1025.9(-1.4/3h) 35 4/8 -- --
02:00 10.8 10.8 7.3 E 3.7 3.7 3.7 79 1026.3(-1.1/3h) 35 2/8 -- --
01:00 12.2 12.2 7.6 E 1.9 1.9 1.9 73 1026.6(-1.0/3h) 35 2/8 -- --
00:00 10.6 10.6 6.8 NNE 1.9 5.6 5.6 77 1027.3(-0.7/3h) 35 2/8 0/6h
0/24h
--

1 Coordinated Universal Time. Actuellement il est 18:00 locale et 16:00 UTC.

2 Le vent souffle depuis la direction indiquée vers la direction oposée.

3 Les rafales max. sont disponible 40 min après l'heure du relevé.

4 Pour les stations d'altitude (plus de 600m) le géopotentiel du niveau le plus proche de la pression obligatoire est indiqué.

5 Les stations disposant d'un diffuseur peuvent indiquer "trace". Cela signifie que des précipitations ont touchés le sol mais que la quantité est inférieure à 0.1 mm.

Récapitulatif de la journée
Température [°C] Vent [km/h] Ensoleillement4 [h] Precipitations totale5 [mm] Pression [Hpa]
Min1 Max.2 Moy.3 Max. Min Max.
7.7 23.9 3.6 9.3 0 h 0 min 0 1022.6 1027.3

1 Température minimale relevée entre 18:00 UTC la veille et 18:00 UTC le jour donné.

2 Température maximale relevée entre 06:00 UTC le jour donné et 06:00 UTC le lendemain.

3 Vent moyen de la journée basé sur les relevés horaires.

4 Ensoleillement en heures relevé entre 06:00 UTC la veille et 06:00 UTC le jour donné.

5 Précipitations totales tombées entre 06:00 UTC la jour donné et 06:00 UTC le lendemain.

Graphiques horaires